sensor_id;sensor_type;location;lat;lon;timestamp;P1;durP1;ratioP1;P2;durP2;ratioP2
56291;SDS011;54008;53.606;9.462;2022-09-13T00:01:39;5.90;;;4.50;;
56291;SDS011;54008;53.606;9.462;2022-09-13T00:04:04;5.73;;;4.50;;
56291;SDS011;54008;53.606;9.462;2022-09-13T00:06:30;6.97;;;4.70;;
56291;SDS011;54008;53.606;9.462;2022-09-13T00:08:55;6.00;;;5.27;;
56291;SDS011;54008;53.606;9.462;2022-09-13T00:11:21;6.93;;;4.90;;
56291;SDS011;54008;53.606;9.462;2022-09-13T00:13:49;5.95;;;5.13;;
56291;SDS011;54008;53.606;9.462;2022-09-13T00:16:15;11.80;;;6.47;;
56291;SDS011;54008;53.606;9.462;2022-09-13T00:18:41;7.30;;;5.38;;
56291;SDS011;54008;53.606;9.462;2022-09-13T00:21:08;7.45;;;6.05;;
56291;SDS011;54008;53.606;9.462;2022-09-13T00:23:35;10.70;;;5.90;;
56291;SDS011;54008;53.606;9.462;2022-09-13T00:26:02;8.77;;;6.47;;
56291;SDS011;54008;53.606;9.462;2022-09-13T00:28:32;13.45;;;7.25;;
56291;SDS011;54008;53.606;9.462;2022-09-13T00:31:01;9.32;;;6.32;;
56291;SDS011;54008;53.606;9.462;2022-09-13T00:33:27;12.75;;;6.70;;
56291;SDS011;54008;53.606;9.462;2022-09-13T00:35:52;9.43;;;7.00;;
56291;SDS011;54008;53.606;9.462;2022-09-13T00:38:17;9.00;;;6.82;;
56291;SDS011;54008;53.606;9.462;2022-09-13T00:40:43;9.90;;;6.97;;
56291;SDS011;54008;53.606;9.462;2022-09-13T00:43:11;8.05;;;6.57;;
56291;SDS011;54008;53.606;9.462;2022-09-13T00:45:42;10.07;;;6.45;;
56291;SDS011;54008;53.606;9.462;2022-09-13T00:48:09;8.35;;;6.70;;
56291;SDS011;54008;53.606;9.462;2022-09-13T00:50:44;8.32;;;6.32;;
56291;SDS011;54008;53.606;9.462;2022-09-13T00:53:15;9.05;;;6.75;;
56291;SDS011;54008;53.606;9.462;2022-09-13T00:55:51;9.43;;;6.57;;
56291;SDS011;54008;53.606;9.462;2022-09-13T00:58:25;10.90;;;7.10;;
56291;SDS011;54008;53.606;9.462;2022-09-13T01:00:55;9.07;;;7.57;;
56291;SDS011;54008;53.606;9.462;2022-09-13T01:03:23;10.77;;;7.70;;
56291;SDS011;54008;53.606;9.462;2022-09-13T01:05:56;10.25;;;7.55;;
56291;SDS011;54008;53.606;9.462;2022-09-13T01:08:26;10.07;;;7.13;;
56291;SDS011;54008;53.606;9.462;2022-09-13T01:10:55;11.20;;;8.00;;
56291;SDS011;54008;53.606;9.462;2022-09-13T01:13:24;11.80;;;8.40;;
56291;SDS011;54008;53.606;9.462;2022-09-13T01:15:52;11.02;;;8.43;;
56291;SDS011;54008;53.606;9.462;2022-09-13T01:18:17;10.88;;;7.88;;
56291;SDS011;54008;53.606;9.462;2022-09-13T01:40:03;14.82;;;9.95;;
56291;SDS011;54008;53.606;9.462;2022-09-13T01:42:42;15.25;;;9.30;;
56291;SDS011;54008;53.606;9.462;2022-09-13T01:48:22;12.15;;;8.60;;
56291;SDS011;54008;53.606;9.462;2022-09-13T01:51:32;15.10;;;9.40;;
56291;SDS011;54008;53.606;9.462;2022-09-13T01:56:32;13.13;;;9.48;;
56291;SDS011;54008;53.606;9.462;2022-09-13T01:59:05;13.50;;;8.82;;
56291;SDS011;54008;53.606;9.462;2022-09-13T02:01:39;17.50;;;8.95;;
56291;SDS011;54008;53.606;9.462;2022-09-13T02:04:16;15.02;;;9.63;;
56291;SDS011;54008;53.606;9.462;2022-09-13T02:06:47;17.15;;;10.38;;
56291;SDS011;54008;53.606;9.462;2022-09-13T02:09:18;14.80;;;9.65;;
56291;SDS011;54008;53.606;9.462;2022-09-13T02:11:48;17.92;;;10.25;;
56291;SDS011;54008;53.606;9.462;2022-09-13T02:14:20;14.40;;;9.57;;
56291;SDS011;54008;53.606;9.462;2022-09-13T02:19:25;15.63;;;9.85;;
56291;SDS011;54008;53.606;9.462;2022-09-13T02:21:58;16.92;;;10.60;;
56291;SDS011;54008;53.606;9.462;2022-09-13T02:24:28;15.30;;;10.60;;
56291;SDS011;54008;53.606;9.462;2022-09-13T02:26:58;14.90;;;10.65;;
56291;SDS011;54008;53.606;9.462;2022-09-13T02:29:29;13.48;;;10.43;;
56291;SDS011;54008;53.606;9.462;2022-09-13T02:32:05;15.48;;;10.40;;
56291;SDS011;54008;53.606;9.462;2022-09-13T02:34:39;16.73;;;11.15;;
56291;SDS011;54008;53.606;9.462;2022-09-13T02:37:07;16.90;;;10.68;;
56291;SDS011;54008;53.606;9.462;2022-09-13T02:39:36;16.98;;;10.10;;
56291;SDS011;54008;53.606;9.462;2022-09-13T02:44:44;16.70;;;11.10;;
56291;SDS011;54008;53.606;9.462;2022-09-13T02:50:20;18.50;;;12.45;;
56291;SDS011;54008;53.606;9.462;2022-09-13T02:52:59;21.75;;;13.90;;
56291;SDS011;54008;53.606;9.462;2022-09-13T02:55:33;27.92;;;13.90;;
56291;SDS011;54008;53.606;9.462;2022-09-13T02:58:23;19.17;;;12.43;;
56291;SDS011;54008;53.606;9.462;2022-09-13T03:00:54;22.10;;;13.18;;
56291;SDS011;54008;53.606;9.462;2022-09-13T03:03:20;20.38;;;13.90;;
56291;SDS011;54008;53.606;9.462;2022-09-13T03:05:45;20.77;;;13.57;;
56291;SDS011;54008;53.606;9.462;2022-09-13T03:08:11;22.23;;;14.20;;
56291;SDS011;54008;53.606;9.462;2022-09-13T03:21:06;23.00;;;15.95;;
56291;SDS011;54008;53.606;9.462;2022-09-13T03:26:39;29.10;;;16.42;;
56291;SDS011;54008;53.606;9.462;2022-09-13T03:29:16;22.33;;;15.57;;
56291;SDS011;54008;53.606;9.462;2022-09-13T03:32:27;24.38;;;15.77;;
56291;SDS011;54008;53.606;9.462;2022-09-13T03:35:16;24.10;;;16.97;;
56291;SDS011;54008;53.606;9.462;2022-09-13T03:40:29;23.70;;;16.42;;
56291;SDS011;54008;53.606;9.462;2022-09-13T03:43:06;28.27;;;18.55;;
56291;SDS011;54008;53.606;9.462;2022-09-13T03:45:39;30.88;;;18.15;;
56291;SDS011;54008;53.606;9.462;2022-09-13T03:48:10;31.13;;;19.67;;
56291;SDS011;54008;53.606;9.462;2022-09-13T03:50:36;29.60;;;18.98;;
56291;SDS011;54008;53.606;9.462;2022-09-13T03:53:05;32.83;;;19.65;;
56291;SDS011;54008;53.606;9.462;2022-09-13T03:58:02;33.55;;;20.60;;
56291;SDS011;54008;53.606;9.462;2022-09-13T04:00:27;33.80;;;21.10;;
56291;SDS011;54008;53.606;9.462;2022-09-13T04:02:53;36.22;;;21.35;;
56291;SDS011;54008;53.606;9.462;2022-09-13T04:05:19;39.28;;;23.27;;
56291;SDS011;54008;53.606;9.462;2022-09-13T04:07:44;40.42;;;23.88;;
56291;SDS011;54008;53.606;9.462;2022-09-13T04:10:10;38.17;;;23.27;;
56291;SDS011;54008;53.606;9.462;2022-09-13T04:12:36;40.80;;;23.52;;
56291;SDS011;54008;53.606;9.462;2022-09-13T04:15:01;37.70;;;24.20;;
56291;SDS011;54008;53.606;9.462;2022-09-13T04:17:27;40.70;;;25.40;;
56291;SDS011;54008;53.606;9.462;2022-09-13T04:19:52;39.97;;;25.30;;
56291;SDS011;54008;53.606;9.462;2022-09-13T04:22:17;37.13;;;23.60;;
56291;SDS011;54008;53.606;9.462;2022-09-13T04:24:43;43.22;;;25.73;;
56291;SDS011;54008;53.606;9.462;2022-09-13T04:27:08;41.80;;;25.83;;
56291;SDS011;54008;53.606;9.462;2022-09-13T04:29:33;44.05;;;26.73;;
56291;SDS011;54008;53.606;9.462;2022-09-13T04:31:58;42.67;;;26.67;;
56291;SDS011;54008;53.606;9.462;2022-09-13T04:34:24;48.83;;;28.10;;
56291;SDS011;54008;53.606;9.462;2022-09-13T04:36:50;46.45;;;29.52;;
56291;SDS011;54008;53.606;9.462;2022-09-13T04:39:16;50.15;;;29.63;;
56291;SDS011;54008;53.606;9.462;2022-09-13T04:41:43;51.35;;;31.27;;
56291;SDS011;54008;53.606;9.462;2022-09-13T04:44:10;53.15;;;30.60;;
56291;SDS011;54008;53.606;9.462;2022-09-13T04:46:36;54.55;;;32.05;;
56291;SDS011;54008;53.606;9.462;2022-09-13T04:49:01;53.50;;;31.00;;
56291;SDS011;54008;53.606;9.462;2022-09-13T04:51:27;48.35;;;32.00;;
56291;SDS011;54008;53.606;9.462;2022-09-13T04:53:53;48.60;;;29.57;;
56291;SDS011;54008;53.606;9.462;2022-09-13T04:56:19;51.17;;;29.90;;
56291;SDS011;54008;53.606;9.462;2022-09-13T04:58:47;49.80;;;30.20;;
56291;SDS011;54008;53.606;9.462;2022-09-13T05:01:12;58.70;;;32.95;;
56291;SDS011;54008;53.606;9.462;2022-09-13T05:03:38;52.95;;;32.20;;
56291;SDS011;54008;53.606;9.462;2022-09-13T05:06:04;57.70;;;31.85;;
56291;SDS011;54008;53.606;9.462;2022-09-13T05:08:30;63.78;;;34.33;;
56291;SDS011;54008;53.606;9.462;2022-09-13T05:10:56;55.38;;;32.30;;
56291;SDS011;54008;53.606;9.462;2022-09-13T05:13:22;55.63;;;32.22;;
56291;SDS011;54008;53.606;9.462;2022-09-13T05:15:48;58.17;;;33.42;;
56291;SDS011;54008;53.606;9.462;2022-09-13T05:18:14;58.30;;;33.43;;
56291;SDS011;54008;53.606;9.462;2022-09-13T05:20:39;56.38;;;33.30;;
56291;SDS011;54008;53.606;9.462;2022-09-13T05:23:04;53.77;;;31.83;;
56291;SDS011;54008;53.606;9.462;2022-09-13T05:25:29;55.93;;;33.20;;
56291;SDS011;54008;53.606;9.462;2022-09-13T05:27:55;55.07;;;33.60;;
56291;SDS011;54008;53.606;9.462;2022-09-13T05:30:20;57.92;;;31.80;;
56291;SDS011;54008;53.606;9.462;2022-09-13T05:32:45;55.55;;;32.90;;
56291;SDS011;54008;53.606;9.462;2022-09-13T05:35:11;52.93;;;31.47;;
56291;SDS011;54008;53.606;9.462;2022-09-13T05:37:37;54.35;;;33.05;;
56291;SDS011;54008;53.606;9.462;2022-09-13T05:40:03;55.80;;;31.88;;
56291;SDS011;54008;53.606;9.462;2022-09-13T05:42:28;53.92;;;31.65;;
56291;SDS011;54008;53.606;9.462;2022-09-13T05:44:53;57.57;;;33.77;;
56291;SDS011;54008;53.606;9.462;2022-09-13T05:47:19;53.20;;;32.17;;
56291;SDS011;54008;53.606;9.462;2022-09-13T05:49:45;54.50;;;31.77;;
56291;SDS011;54008;53.606;9.462;2022-09-13T05:52:10;52.13;;;31.07;;
56291;SDS011;54008;53.606;9.462;2022-09-13T05:54:35;50.87;;;29.77;;
56291;SDS011;54008;53.606;9.462;2022-09-13T05:57:01;51.58;;;29.73;;
56291;SDS011;54008;53.606;9.462;2022-09-13T05:59:27;54.67;;;30.70;;
56291;SDS011;54008;53.606;9.462;2022-09-13T06:01:52;51.03;;;29.27;;
56291;SDS011;54008;53.606;9.462;2022-09-13T06:04:17;53.37;;;29.17;;
56291;SDS011;54008;53.606;9.462;2022-09-13T06:06:43;47.10;;;28.20;;
56291;SDS011;54008;53.606;9.462;2022-09-13T06:09:09;47.83;;;28.98;;
56291;SDS011;54008;53.606;9.462;2022-09-13T06:11:35;51.20;;;28.02;;
56291;SDS011;54008;53.606;9.462;2022-09-13T06:14:00;38.63;;;24.73;;
56291;SDS011;54008;53.606;9.462;2022-09-13T06:16:25;43.80;;;26.43;;
56291;SDS011;54008;53.606;9.462;2022-09-13T06:18:51;46.72;;;25.88;;
56291;SDS011;54008;53.606;9.462;2022-09-13T06:21:17;44.00;;;24.73;;
56291;SDS011;54008;53.606;9.462;2022-09-13T06:23:47;39.83;;;24.23;;
56291;SDS011;54008;53.606;9.462;2022-09-13T06:26:19;42.15;;;23.08;;
56291;SDS011;54008;53.606;9.462;2022-09-13T06:28:49;37.28;;;22.85;;
56291;SDS011;54008;53.606;9.462;2022-09-13T06:31:16;38.60;;;21.25;;
56291;SDS011;54008;53.606;9.462;2022-09-13T06:33:42;36.38;;;21.15;;
56291;SDS011;54008;53.606;9.462;2022-09-13T06:36:09;35.83;;;22.35;;
56291;SDS011;54008;53.606;9.462;2022-09-13T06:38:37;32.53;;;20.80;;
56291;SDS011;54008;53.606;9.462;2022-09-13T06:41:04;36.45;;;20.95;;
56291;SDS011;54008;53.606;9.462;2022-09-13T06:43:32;30.85;;;19.73;;
56291;SDS011;54008;53.606;9.462;2022-09-13T06:45:59;36.88;;;20.88;;
56291;SDS011;54008;53.606;9.462;2022-09-13T06:48:25;29.30;;;18.50;;
56291;SDS011;54008;53.606;9.462;2022-09-13T06:50:56;29.60;;;18.05;;
56291;SDS011;54008;53.606;9.462;2022-09-13T06:53:22;29.52;;;18.52;;
56291;SDS011;54008;53.606;9.462;2022-09-13T06:55:48;33.10;;;17.87;;
56291;SDS011;54008;53.606;9.462;2022-09-13T06:58:13;33.20;;;18.35;;
56291;SDS011;54008;53.606;9.462;2022-09-13T07:00:38;28.70;;;17.83;;
56291;SDS011;54008;53.606;9.462;2022-09-13T07:03:04;30.05;;;17.58;;
56291;SDS011;54008;53.606;9.462;2022-09-13T07:05:29;27.20;;;15.97;;
56291;SDS011;54008;53.606;9.462;2022-09-13T07:07:54;27.93;;;17.00;;
56291;SDS011;54008;53.606;9.462;2022-09-13T07:10:20;25.52;;;15.55;;
56291;SDS011;54008;53.606;9.462;2022-09-13T07:12:45;24.93;;;14.80;;
56291;SDS011;54008;53.606;9.462;2022-09-13T07:15:11;23.65;;;12.13;;
56291;SDS011;54008;53.606;9.462;2022-09-13T07:17:36;26.73;;;12.55;;
56291;SDS011;54008;53.606;9.462;2022-09-13T07:20:02;23.77;;;12.90;;
56291;SDS011;54008;53.606;9.462;2022-09-13T07:22:29;23.25;;;12.43;;
56291;SDS011;54008;53.606;9.462;2022-09-13T07:24:55;24.00;;;12.10;;
56291;SDS011;54008;53.606;9.462;2022-09-13T07:27:21;18.10;;;8.38;;
56291;SDS011;54008;53.606;9.462;2022-09-13T07:29:46;15.10;;;6.28;;
56291;SDS011;54008;53.606;9.462;2022-09-13T07:32:11;16.23;;;6.23;;
56291;SDS011;54008;53.606;9.462;2022-09-13T07:34:36;11.17;;;5.10;;
56291;SDS011;54008;53.606;9.462;2022-09-13T07:37:02;14.93;;;4.60;;
56291;SDS011;54008;53.606;9.462;2022-09-13T07:39:27;8.93;;;3.58;;
56291;SDS011;54008;53.606;9.462;2022-09-13T07:41:52;10.07;;;3.17;;
56291;SDS011;54008;53.606;9.462;2022-09-13T07:44:18;9.27;;;2.57;;
56291;SDS011;54008;53.606;9.462;2022-09-13T07:46:43;9.95;;;2.70;;
56291;SDS011;54008;53.606;9.462;2022-09-13T07:49:09;12.73;;;2.75;;
56291;SDS011;54008;53.606;9.462;2022-09-13T07:51:39;12.88;;;2.92;;
56291;SDS011;54008;53.606;9.462;2022-09-13T07:54:08;7.05;;;1.83;;
56291;SDS011;54008;53.606;9.462;2022-09-13T07:56:37;13.75;;;1.70;;
56291;SDS011;54008;53.606;9.462;2022-09-13T07:59:04;13.10;;;1.70;;
56291;SDS011;54008;53.606;9.462;2022-09-13T08:01:35;10.68;;;1.90;;
56291;SDS011;54008;53.606;9.462;2022-09-13T08:04:03;12.40;;;1.73;;
56291;SDS011;54008;53.606;9.462;2022-09-13T08:06:31;14.00;;;1.48;;
56291;SDS011;54008;53.606;9.462;2022-09-13T08:08:57;7.70;;;1.63;;
56291;SDS011;54008;53.606;9.462;2022-09-13T08:11:30;10.50;;;1.30;;
56291;SDS011;54008;53.606;9.462;2022-09-13T08:13:57;14.10;;;1.40;;
56291;SDS011;54008;53.606;9.462;2022-09-13T08:16:24;8.32;;;1.38;;
56291;SDS011;54008;53.606;9.462;2022-09-13T08:18:55;6.70;;;1.50;;
56291;SDS011;54008;53.606;9.462;2022-09-13T08:23:48;13.43;;;2.10;;
56291;SDS011;54008;53.606;9.462;2022-09-13T08:26:13;9.35;;;1.45;;
56291;SDS011;54008;53.606;9.462;2022-09-13T08:28:39;10.15;;;1.30;;
56291;SDS011;54008;53.606;9.462;2022-09-13T08:31:07;8.93;;;1.90;;
56291;SDS011;54008;53.606;9.462;2022-09-13T08:33:42;17.58;;;1.73;;
56291;SDS011;54008;53.606;9.462;2022-09-13T08:36:08;5.78;;;1.23;;
56291;SDS011;54008;53.606;9.462;2022-09-13T08:38:33;10.50;;;1.40;;
56291;SDS011;54008;53.606;9.462;2022-09-13T08:41:01;14.57;;;1.48;;
56291;SDS011;54008;53.606;9.462;2022-09-13T08:43:33;8.50;;;0.95;;
56291;SDS011;54008;53.606;9.462;2022-09-13T08:48:46;5.63;;;0.93;;
56291;SDS011;54008;53.606;9.462;2022-09-13T08:54:11;7.13;;;1.40;;
56291;SDS011;54008;53.606;9.462;2022-09-13T08:56:58;6.72;;;1.30;;
56291;SDS011;54008;53.606;9.462;2022-09-13T08:59:43;7.80;;;1.23;;
56291;SDS011;54008;53.606;9.462;2022-09-13T09:02:40;9.95;;;1.35;;
56291;SDS011;54008;53.606;9.462;2022-09-13T09:07:46;6.47;;;1.25;;
56291;SDS011;54008;53.606;9.462;2022-09-13T09:10:18;6.32;;;0.85;;
56291;SDS011;54008;53.606;9.462;2022-09-13T09:15:31;11.40;;;1.42;;
56291;SDS011;54008;53.606;9.462;2022-09-13T09:18:08;6.70;;;1.00;;
56291;SDS011;54008;53.606;9.462;2022-09-13T09:23:15;9.25;;;1.17;;
56291;SDS011;54008;53.606;9.462;2022-09-13T09:25:42;6.50;;;1.45;;
56291;SDS011;54008;53.606;9.462;2022-09-13T09:28:12;5.35;;;1.10;;
56291;SDS011;54008;53.606;9.462;2022-09-13T09:33:40;6.72;;;0.95;;
56291;SDS011;54008;53.606;9.462;2022-09-13T09:36:35;8.35;;;1.70;;
56291;SDS011;54008;53.606;9.462;2022-09-13T09:39:04;7.53;;;0.88;;
56291;SDS011;54008;53.606;9.462;2022-09-13T09:41:33;5.97;;;0.82;;
56291;SDS011;54008;53.606;9.462;2022-09-13T09:46:46;9.30;;;1.23;;
56291;SDS011;54008;53.606;9.462;2022-09-13T09:49:18;7.18;;;1.50;;
56291;SDS011;54008;53.606;9.462;2022-09-13T09:52:09;4.53;;;0.98;;
56291;SDS011;54008;53.606;9.462;2022-09-13T09:54:38;5.75;;;1.33;;
56291;SDS011;54008;53.606;9.462;2022-09-13T09:57:05;5.47;;;1.05;;
56291;SDS011;54008;53.606;9.462;2022-09-13T09:59:32;4.90;;;0.80;;
56291;SDS011;54008;53.606;9.462;2022-09-13T10:01:59;5.55;;;0.95;;
56291;SDS011;54008;53.606;9.462;2022-09-13T10:04:26;6.80;;;0.70;;
56291;SDS011;54008;53.606;9.462;2022-09-13T10:09:53;7.97;;;0.98;;
56291;SDS011;54008;53.606;9.462;2022-09-13T10:12:26;4.18;;;0.73;;
56291;SDS011;54008;53.606;9.462;2022-09-13T10:15:02;4.97;;;1.02;;
56291;SDS011;54008;53.606;9.462;2022-09-13T10:17:39;6.05;;;0.80;;
56291;SDS011;54008;53.606;9.462;2022-09-13T10:20:18;8.30;;;0.98;;
56291;SDS011;54008;53.606;9.462;2022-09-13T10:22:58;6.03;;;1.13;;
56291;SDS011;54008;53.606;9.462;2022-09-13T10:25:35;7.40;;;1.10;;
56291;SDS011;54008;53.606;9.462;2022-09-13T10:28:01;5.32;;;1.20;;
56291;SDS011;54008;53.606;9.462;2022-09-13T10:30:39;4.82;;;0.90;;
56291;SDS011;54008;53.606;9.462;2022-09-13T10:33:23;8.20;;;1.95;;
56291;SDS011;54008;53.606;9.462;2022-09-13T10:35:53;12.50;;;1.58;;
56291;SDS011;54008;53.606;9.462;2022-09-13T10:38:26;5.43;;;1.15;;
56291;SDS011;54008;53.606;9.462;2022-09-13T10:40:55;8.95;;;1.30;;
56291;SDS011;54008;53.606;9.462;2022-09-13T10:43:22;10.75;;;1.35;;
56291;SDS011;54008;53.606;9.462;2022-09-13T10:45:51;4.95;;;1.23;;
56291;SDS011;54008;53.606;9.462;2022-09-13T10:48:17;5.78;;;1.30;;
56291;SDS011;54008;53.606;9.462;2022-09-13T10:51:00;4.07;;;0.60;;
56291;SDS011;54008;53.606;9.462;2022-09-13T10:53:37;7.28;;;1.20;;
56291;SDS011;54008;53.606;9.462;2022-09-13T11:10:20;6.72;;;1.05;;
56291;SDS011;54008;53.606;9.462;2022-09-13T11:12:58;3.97;;;0.85;;
56291;SDS011;54008;53.606;9.462;2022-09-13T11:23:52;6.07;;;1.25;;
56291;SDS011;54008;53.606;9.462;2022-09-13T11:26:48;5.45;;;1.23;;
56291;SDS011;54008;53.606;9.462;2022-09-13T11:32:22;5.32;;;1.08;;
56291;SDS011;54008;53.606;9.462;2022-09-13T11:35:11;6.55;;;1.00;;
56291;SDS011;54008;53.606;9.462;2022-09-13T11:38:04;7.57;;;1.00;;
56291;SDS011;54008;53.606;9.462;2022-09-13T11:49:00;8.65;;;1.20;;
56291;SDS011;54008;53.606;9.462;2022-09-13T11:51:33;5.18;;;1.30;;
56291;SDS011;54008;53.606;9.462;2022-09-13T11:54:29;7.60;;;1.33;;
56291;SDS011;54008;53.606;9.462;2022-09-13T11:57:10;10.88;;;2.08;;
56291;SDS011;54008;53.606;9.462;2022-09-13T11:59:51;7.90;;;1.40;;
56291;SDS011;54008;53.606;9.462;2022-09-13T12:05:35;7.93;;;1.48;;
56291;SDS011;54008;53.606;9.462;2022-09-13T12:08:15;3.88;;;1.02;;
56291;SDS011;54008;53.606;9.462;2022-09-13T12:10:49;4.80;;;1.20;;
56291;SDS011;54008;53.606;9.462;2022-09-13T12:13:25;6.65;;;1.35;;
56291;SDS011;54008;53.606;9.462;2022-09-13T12:15:54;8.25;;;0.85;;
56291;SDS011;54008;53.606;9.462;2022-09-13T12:19:06;5.72;;;1.00;;
56291;SDS011;54008;53.606;9.462;2022-09-13T12:21:20;10.13;;;1.25;;
56291;SDS011;54008;53.606;9.462;2022-09-13T12:23:54;7.03;;;1.33;;
56291;SDS011;54008;53.606;9.462;2022-09-13T12:29:19;3.60;;;1.08;;
56291;SDS011;54008;53.606;9.462;2022-09-13T12:31:53;6.00;;;0.93;;
56291;SDS011;54008;53.606;9.462;2022-09-13T12:34:39;7.93;;;1.00;;
56291;SDS011;54008;53.606;9.462;2022-09-13T12:37:13;8.60;;;1.17;;
56291;SDS011;54008;53.606;9.462;2022-09-13T12:53:57;5.47;;;1.30;;
56291;SDS011;54008;53.606;9.462;2022-09-13T13:02:38;5.07;;;0.90;;
56291;SDS011;54008;53.606;9.462;2022-09-13T13:07:52;8.25;;;1.10;;
56291;SDS011;54008;53.606;9.462;2022-09-13T13:16:24;5.83;;;1.60;;
56291;SDS011;54008;53.606;9.462;2022-09-13T13:18:52;6.47;;;1.25;;
56291;SDS011;54008;53.606;9.462;2022-09-13T13:29:13;8.60;;;1.38;;
56291;SDS011;54008;53.606;9.462;2022-09-13T13:31:44;7.43;;;1.30;;
56291;SDS011;54008;53.606;9.462;2022-09-13T13:34:49;8.05;;;1.27;;
56291;SDS011;54008;53.606;9.462;2022-09-13T13:39:46;6.57;;;1.20;;
56291;SDS011;54008;53.606;9.462;2022-09-13T13:42:23;6.28;;;1.20;;
56291;SDS011;54008;53.606;9.462;2022-09-13T13:49:49;7.97;;;1.77;;
56291;SDS011;54008;53.606;9.462;2022-09-13T14:00:15;7.97;;;1.52;;
56291;SDS011;54008;53.606;9.462;2022-09-13T14:08:14;9.30;;;1.63;;
56291;SDS011;54008;53.606;9.462;2022-09-13T14:13:59;10.63;;;1.33;;
56291;SDS011;54008;53.606;9.462;2022-09-13T14:19:28;9.32;;;1.52;;
56291;SDS011;54008;53.606;9.462;2022-09-13T14:22:06;9.68;;;1.20;;
56291;SDS011;54008;53.606;9.462;2022-09-13T14:24:39;11.55;;;1.50;;
56291;SDS011;54008;53.606;9.462;2022-09-13T14:27:09;6.70;;;1.13;;
56291;SDS011;54008;53.606;9.462;2022-09-13T14:29:39;9.38;;;1.35;;
56291;SDS011;54008;53.606;9.462;2022-09-13T14:32:10;8.10;;;1.23;;
56291;SDS011;54008;53.606;9.462;2022-09-13T14:34:48;7.65;;;1.77;;
56291;SDS011;54008;53.606;9.462;2022-09-13T14:37:29;7.72;;;1.83;;
56291;SDS011;54008;53.606;9.462;2022-09-13T14:42:39;10.80;;;1.60;;
56291;SDS011;54008;53.606;9.462;2022-09-13T14:45:26;12.68;;;1.48;;
56291;SDS011;54008;53.606;9.462;2022-09-13T14:47:57;6.60;;;1.17;;
56291;SDS011;54008;53.606;9.462;2022-09-13T14:53:23;8.25;;;1.25;;
56291;SDS011;54008;53.606;9.462;2022-09-13T14:55:51;7.22;;;1.38;;
56291;SDS011;54008;53.606;9.462;2022-09-13T14:58:21;19.83;;;1.60;;
56291;SDS011;54008;53.606;9.462;2022-09-13T15:01:07;9.82;;;1.33;;
56291;SDS011;54008;53.606;9.462;2022-09-13T15:03:35;7.38;;;1.20;;
56291;SDS011;54008;53.606;9.462;2022-09-13T15:06:04;6.72;;;1.83;;
56291;SDS011;54008;53.606;9.462;2022-09-13T15:11:02;7.88;;;1.40;;
56291;SDS011;54008;53.606;9.462;2022-09-13T15:13:30;7.95;;;1.40;;
56291;SDS011;54008;53.606;9.462;2022-09-13T15:15:56;6.43;;;1.20;;
56291;SDS011;54008;53.606;9.462;2022-09-13T15:18:23;8.43;;;1.38;;
56291;SDS011;54008;53.606;9.462;2022-09-13T15:20:54;7.93;;;1.67;;
56291;SDS011;54008;53.606;9.462;2022-09-13T15:23:26;11.40;;;2.10;;
56291;SDS011;54008;53.606;9.462;2022-09-13T15:26:07;9.68;;;1.63;;
56291;SDS011;54008;53.606;9.462;2022-09-13T15:28:50;10.27;;;1.92;;
56291;SDS011;54008;53.606;9.462;2022-09-13T15:36:44;4.00;;;0.98;;
56291;SDS011;54008;53.606;9.462;2022-09-13T15:39:14;6.22;;;1.58;;
56291;SDS011;54008;53.606;9.462;2022-09-13T15:41:55;8.77;;;1.60;;
56291;SDS011;54008;53.606;9.462;2022-09-13T15:44:23;7.65;;;1.30;;
56291;SDS011;54008;53.606;9.462;2022-09-13T15:46:50;7.50;;;1.02;;
56291;SDS011;54008;53.606;9.462;2022-09-13T15:49:17;10.85;;;1.50;;
56291;SDS011;54008;53.606;9.462;2022-09-13T15:51:45;9.10;;;1.15;;
56291;SDS011;54008;53.606;9.462;2022-09-13T15:54:11;8.77;;;0.98;;
56291;SDS011;54008;53.606;9.462;2022-09-13T15:56:42;5.97;;;1.55;;
56291;SDS011;54008;53.606;9.462;2022-09-13T15:59:16;6.43;;;1.63;;
56291;SDS011;54008;53.606;9.462;2022-09-13T16:01:43;9.05;;;1.60;;
56291;SDS011;54008;53.606;9.462;2022-09-13T16:04:10;9.55;;;1.75;;
56291;SDS011;54008;53.606;9.462;2022-09-13T16:06:36;5.15;;;0.82;;
56291;SDS011;54008;53.606;9.462;2022-09-13T16:09:06;8.85;;;1.38;;
56291;SDS011;54008;53.606;9.462;2022-09-13T16:11:39;6.53;;;1.17;;
56291;SDS011;54008;53.606;9.462;2022-09-13T16:14:05;5.83;;;1.10;;
56291;SDS011;54008;53.606;9.462;2022-09-13T16:16:30;7.50;;;1.33;;
56291;SDS011;54008;53.606;9.462;2022-09-13T16:18:55;7.30;;;1.15;;
56291;SDS011;54008;53.606;9.462;2022-09-13T16:21:21;6.18;;;1.10;;
56291;SDS011;54008;53.606;9.462;2022-09-13T16:23:46;6.43;;;1.17;;
56291;SDS011;54008;53.606;9.462;2022-09-13T16:26:12;7.32;;;1.10;;
56291;SDS011;54008;53.606;9.462;2022-09-13T16:28:37;7.70;;;1.13;;
56291;SDS011;54008;53.606;9.462;2022-09-13T16:31:03;7.43;;;1.20;;
56291;SDS011;54008;53.606;9.462;2022-09-13T16:33:28;7.97;;;1.00;;
56291;SDS011;54008;53.606;9.462;2022-09-13T16:35:55;9.30;;;0.93;;
56291;SDS011;54008;53.606;9.462;2022-09-13T16:38:21;8.75;;;1.38;;
56291;SDS011;54008;53.606;9.462;2022-09-13T16:40:46;7.38;;;1.40;;
56291;SDS011;54008;53.606;9.462;2022-09-13T16:43:12;9.43;;;1.40;;
56291;SDS011;54008;53.606;9.462;2022-09-13T16:45:38;8.75;;;1.20;;
56291;SDS011;54008;53.606;9.462;2022-09-13T16:48:05;8.43;;;1.40;;
56291;SDS011;54008;53.606;9.462;2022-09-13T16:50:31;11.90;;;1.70;;
56291;SDS011;54008;53.606;9.462;2022-09-13T16:52:57;7.57;;;1.92;;
56291;SDS011;54008;53.606;9.462;2022-09-13T16:55:22;12.23;;;1.30;;
56291;SDS011;54008;53.606;9.462;2022-09-13T16:57:49;6.78;;;1.52;;
56291;SDS011;54008;53.606;9.462;2022-09-13T17:00:16;12.68;;;1.90;;
56291;SDS011;54008;53.606;9.462;2022-09-13T17:02:44;9.82;;;1.63;;
56291;SDS011;54008;53.606;9.462;2022-09-13T17:05:10;7.15;;;1.33;;
56291;SDS011;54008;53.606;9.462;2022-09-13T17:07:37;12.45;;;1.30;;
56291;SDS011;54008;53.606;9.462;2022-09-13T17:10:06;12.27;;;1.50;;
56291;SDS011;54008;53.606;9.462;2022-09-13T17:14:58;9.25;;;1.90;;
56291;SDS011;54008;53.606;9.462;2022-09-13T17:17:25;6.05;;;1.10;;
56291;SDS011;54008;53.606;9.462;2022-09-13T17:19:50;9.93;;;1.40;;
56291;SDS011;54008;53.606;9.462;2022-09-13T17:22:16;4.55;;;0.85;;
56291;SDS011;54008;53.606;9.462;2022-09-13T17:24:43;10.82;;;1.38;;
56291;SDS011;54008;53.606;9.462;2022-09-13T17:27:09;7.82;;;1.25;;
56291;SDS011;54008;53.606;9.462;2022-09-13T17:29:35;4.45;;;0.90;;
56291;SDS011;54008;53.606;9.462;2022-09-13T17:32:01;4.90;;;0.93;;
56291;SDS011;54008;53.606;9.462;2022-09-13T17:34:28;6.60;;;0.82;;
56291;SDS011;54008;53.606;9.462;2022-09-13T17:36:56;7.63;;;1.00;;
56291;SDS011;54008;53.606;9.462;2022-09-13T17:39:22;8.15;;;0.80;;
56291;SDS011;54008;53.606;9.462;2022-09-13T17:41:48;2.65;;;0.95;;
56291;SDS011;54008;53.606;9.462;2022-09-13T17:44:15;5.90;;;1.30;;
56291;SDS011;54008;53.606;9.462;2022-09-13T17:46:41;5.18;;;1.30;;
56291;SDS011;54008;53.606;9.462;2022-09-13T17:49:07;5.43;;;0.95;;
56291;SDS011;54008;53.606;9.462;2022-09-13T17:51:33;6.13;;;1.10;;
56291;SDS011;54008;53.606;9.462;2022-09-13T17:54:00;9.25;;;1.20;;
56291;SDS011;54008;53.606;9.462;2022-09-13T17:56:29;2.90;;;0.67;;
56291;SDS011;54008;53.606;9.462;2022-09-13T17:59:11;9.80;;;1.27;;
56291;SDS011;54008;53.606;9.462;2022-09-13T18:01:40;5.03;;;1.15;;
56291;SDS011;54008;53.606;9.462;2022-09-13T18:04:08;6.72;;;1.10;;
56291;SDS011;54008;53.606;9.462;2022-09-13T18:06:35;5.78;;;1.20;;
56291;SDS011;54008;53.606;9.462;2022-09-13T18:09:02;5.80;;;1.02;;